createdAt,value
2022-08-30T00:02:26.521Z,73.59
2022-08-30T00:04:55.245Z,73.39
2022-08-30T00:07:23.704Z,73.46
2022-08-30T00:09:51.980Z,73.52
2022-08-30T00:12:21.154Z,74.26
2022-08-30T00:14:49.541Z,73.87
2022-08-30T00:17:19.460Z,74.40
2022-08-30T00:19:47.876Z,74.59
2022-08-30T00:22:16.136Z,74.78
2022-08-30T00:24:44.495Z,75.13
2022-08-30T00:27:12.672Z,75.54
2022-08-30T00:29:41.264Z,75.39
2022-08-30T00:32:09.440Z,75.70
2022-08-30T00:34:37.665Z,76.35
2022-08-30T00:37:06.573Z,76.37
2022-08-30T00:39:34.801Z,76.38
2022-08-30T00:42:03.040Z,76.44
2022-08-30T00:44:31.354Z,77.39
2022-08-30T00:46:59.611Z,76.75
2022-08-30T00:49:29.703Z,77.16
2022-08-30T00:51:59.105Z,76.43
2022-08-30T00:54:27.855Z,76.72
2022-08-30T00:56:56.306Z,76.57
2022-08-30T00:59:26.493Z,75.69
2022-08-30T01:01:54.923Z,76.01
2022-08-30T01:04:25.800Z,76.33
2022-08-30T01:06:54.912Z,76.18
2022-08-30T01:09:23.649Z,76.16
2022-08-30T01:11:51.909Z,75.37
2022-08-30T01:14:22.278Z,75.28
2022-08-30T01:16:56.525Z,75.89
2022-08-30T01:19:41.284Z,75.65
2022-08-30T01:22:48.390Z,76.36
2022-08-30T01:25:30.390Z,75.70
2022-08-30T01:28:08.869Z,76.57
2022-08-30T01:30:43.002Z,76.16
2022-08-30T01:33:12.110Z,76.03
2022-08-30T01:36:07.157Z,76.41
2022-08-30T01:38:51.622Z,77.16
2022-08-30T01:41:26.648Z,77.27
2022-08-30T01:43:58.207Z,77.99
2022-08-30T01:46:36.215Z,78.62
2022-08-30T01:49:11.543Z,78.64
2022-08-30T01:51:40.694Z,78.93
2022-08-30T01:54:09.164Z,79.62
2022-08-30T01:56:37.376Z,80.46
2022-08-30T01:59:06.149Z,79.98
2022-08-30T02:01:37.341Z,80.63
2022-08-30T02:04:08.217Z,80.63
2022-08-30T02:06:39.169Z,80.47
2022-08-30T02:09:07.737Z,82.03
2022-08-30T02:11:36.192Z,82.97
2022-08-30T02:14:05.059Z,83.70
2022-08-30T02:16:33.686Z,85.25
2022-08-30T02:19:01.930Z,85.71
2022-08-30T02:21:30.333Z,84.95
2022-08-30T02:23:59.478Z,85.81
2022-08-30T02:26:27.828Z,86.02
2022-08-30T02:28:56.073Z,84.18
2022-08-30T02:31:27.599Z,84.82
2022-08-30T02:33:55.977Z,85.12
2022-08-30T02:36:24.553Z,86.28
2022-08-30T02:38:52.720Z,86.61
2022-08-30T02:41:21.096Z,87.70
2022-08-30T02:43:49.668Z,88.23
2022-08-30T02:46:18.428Z,88.88
2022-08-30T02:48:46.680Z,90.08
2022-08-30T02:51:15.277Z,88.75
2022-08-30T02:53:44.889Z,88.32
2022-08-30T02:56:14.320Z,88.50
2022-08-30T02:58:43.846Z,89.24
2022-08-30T03:01:14.739Z,89.62
2022-08-30T03:03:44.806Z,90.25
2022-08-30T03:06:13.765Z,91.59
2022-08-30T03:08:42.602Z,89.95
2022-08-30T03:11:10.858Z,87.74
2022-08-30T03:13:39.052Z,87.97
2022-08-30T03:16:07.255Z,87.06
2022-08-30T03:18:35.626Z,86.25
2022-08-30T03:21:06.821Z,87.93
2022-08-30T03:23:35.547Z,88.38
2022-08-30T03:26:03.828Z,87.14
2022-08-30T03:28:32.044Z,87.04
2022-08-30T03:31:00.395Z,86.91
2022-08-30T03:33:28.721Z,87.68
2022-08-30T03:35:56.968Z,87.34
2022-08-30T03:38:25.141Z,87.89
2022-08-30T03:40:53.341Z,87.86
2022-08-30T03:43:21.517Z,87.89
2022-08-30T03:45:51.890Z,88.91
2022-08-30T03:48:20.136Z,89.70
2022-08-30T03:50:48.376Z,88.64
2022-08-30T03:53:16.791Z,89.08
2022-08-30T03:55:45.188Z,90.11
2022-08-30T03:58:14.472Z,90.00
2022-08-30T04:00:47.511Z,90.96
2022-08-30T04:03:15.854Z,90.42
2022-08-30T04:05:45.400Z,90.95
2022-08-30T04:08:13.660Z,90.96
2022-08-30T04:10:41.850Z,91.79
2022-08-30T04:13:10.048Z,90.44
2022-08-30T04:15:38.290Z,90.15
2022-08-30T04:18:06.617Z,89.88
2022-08-30T04:20:35.148Z,92.44
2022-08-30T04:23:04.108Z,92.38
2022-08-30T04:25:32.379Z,91.41
2022-08-30T04:28:01.083Z,91.12
2022-08-30T04:30:29.429Z,94.17
2022-08-30T04:32:58.887Z,93.79
2022-08-30T04:35:27.516Z,92.81
2022-08-30T04:37:55.831Z,94.08
2022-08-30T04:40:24.075Z,97.29
2022-08-30T04:42:56.281Z,95.45
2022-08-30T04:45:26.801Z,94.46
2022-08-30T04:47:56.465Z,93.52
2022-08-30T04:50:25.553Z,93.49
2022-08-30T04:52:53.770Z,92.35
2022-08-30T04:55:22.173Z,91.90
2022-08-30T04:57:50.620Z,93.11
2022-08-30T05:00:23.262Z,92.77
2022-08-30T05:02:51.687Z,92.91
2022-08-30T05:05:38.638Z,92.05
2022-08-30T05:08:13.798Z,91.77
2022-08-30T05:10:48.690Z,92.33
2022-08-30T05:13:19.061Z,91.51
2022-08-30T05:15:47.772Z,92.90
2022-08-30T05:18:16.705Z,92.22
2022-08-30T05:20:45.364Z,92.13
2022-08-30T05:23:14.904Z,93.66
2022-08-30T05:25:43.432Z,92.61
2022-08-30T05:28:11.735Z,92.86
2022-08-30T05:30:39.901Z,92.46
2022-08-30T05:33:08.308Z,92.94
2022-08-30T05:35:36.568Z,92.67
2022-08-30T05:38:05.130Z,93.27
2022-08-30T05:40:35.239Z,94.02
2022-08-30T05:43:04.777Z,93.29
2022-08-30T05:45:32.953Z,93.32
2022-08-30T05:48:01.878Z,92.10
2022-08-30T05:50:30.233Z,92.73
2022-08-30T05:52:58.409Z,92.08
2022-08-30T05:55:26.617Z,91.41
2022-08-30T05:57:54.915Z,90.97
2022-08-30T06:00:23.748Z,91.06
2022-08-30T06:02:55.066Z,92.10
2022-08-30T06:05:23.512Z,91.34
2022-08-30T06:07:51.799Z,91.22
2022-08-30T06:10:20.025Z,90.24
2022-08-30T06:12:48.189Z,89.93
2022-08-30T06:15:16.691Z,90.02
2022-08-30T06:17:44.866Z,89.18
2022-08-30T06:20:14.085Z,88.88
2022-08-30T06:22:42.251Z,87.69
2022-08-30T06:25:10.997Z,86.89
2022-08-30T06:27:39.260Z,86.43
2022-08-30T06:30:08.663Z,85.98
2022-08-30T06:32:46.063Z,85.35
2022-08-30T06:35:14.180Z,85.22
2022-08-30T06:37:42.850Z,85.20
2022-08-30T06:40:12.192Z,85.13
2022-08-30T06:42:50.702Z,84.50
2022-08-30T06:45:20.557Z,85.50
2022-08-30T06:47:49.264Z,84.75
2022-08-30T06:50:17.984Z,84.28
2022-08-30T06:52:47.338Z,84.28
2022-08-30T06:55:17.983Z,84.58
2022-08-30T06:57:46.829Z,84.34
2022-08-30T07:00:17.184Z,83.34
2022-08-30T07:02:45.566Z,82.64
2022-08-30T07:05:18.502Z,82.14
2022-08-30T07:07:47.037Z,82.09
2022-08-30T07:10:17.293Z,81.65
2022-08-30T07:12:45.689Z,82.98
2022-08-30T07:15:14.088Z,82.47
2022-08-30T07:18:02.940Z,82.96
2022-08-30T07:20:40.624Z,82.12
2022-08-30T07:23:10.265Z,82.20
2022-08-30T07:25:41.544Z,82.81
2022-08-30T07:28:14.900Z,82.23
2022-08-30T07:30:43.652Z,82.53
2022-08-30T07:33:11.788Z,82.38
2022-08-30T07:35:39.955Z,80.48
2022-08-30T07:38:14.560Z,81.38
2022-08-30T07:40:42.865Z,80.23
2022-08-30T07:43:11.082Z,79.65
2022-08-30T07:45:40.017Z,79.66
2022-08-30T07:48:08.622Z,77.72
2022-08-30T07:50:36.678Z,77.71
2022-08-30T07:53:07.917Z,79.33
2022-08-30T07:55:39.268Z,77.93
2022-08-30T07:58:07.624Z,76.85
2022-08-30T08:00:39.809Z,76.25
2022-08-30T08:03:10.556Z,76.61
2022-08-30T08:05:41.835Z,76.98
2022-08-30T08:08:10.782Z,76.41
2022-08-30T08:10:41.916Z,75.43
2022-08-30T08:13:10.343Z,76.31
2022-08-30T08:15:38.986Z,74.48
2022-08-30T08:18:07.324Z,73.08
2022-08-30T08:20:35.965Z,73.08
2022-08-30T08:23:04.189Z,71.60
2022-08-30T08:25:32.509Z,71.65
2022-08-30T08:28:02.461Z,70.51
2022-08-30T08:30:36.361Z,71.28
2022-08-30T08:33:06.291Z,72.03
2022-08-30T08:35:34.757Z,70.41
2022-08-30T08:38:03.210Z,69.91
2022-08-30T08:41:03.783Z,70.49
2022-08-30T08:43:35.859Z,70.14
2022-08-30T08:46:15.990Z,69.44
2022-08-30T08:49:00.109Z,70.45
2022-08-30T08:51:52.903Z,70.13
2022-08-30T08:54:40.730Z,69.98
2022-08-30T08:57:13.794Z,69.75
2022-08-30T08:59:45.532Z,70.55
2022-08-30T09:02:46.982Z,70.24
2022-08-30T09:05:20.609Z,69.94
2022-08-30T09:08:01.137Z,69.17
2022-08-30T09:11:13.392Z,68.67
2022-08-30T09:13:44.284Z,68.68
2022-08-30T09:17:02.594Z,69.80
2022-08-30T09:19:39.811Z,69.07
2022-08-30T09:22:14.214Z,67.36
2022-08-30T09:24:46.989Z,66.94
2022-08-30T09:27:32.381Z,67.51
2022-08-30T09:30:02.593Z,66.07
2022-08-30T09:32:52.421Z,66.28
2022-08-30T09:35:49.057Z,65.85
2022-08-30T09:38:36.006Z,65.42
2022-08-30T09:41:42.366Z,65.79
2022-08-30T09:44:29.675Z,63.04
2022-08-30T09:47:44.148Z,65.09
2022-08-30T09:50:37.078Z,64.97
2022-08-30T09:53:34.879Z,62.24
2022-08-30T09:56:54.196Z,64.71
2022-08-30T09:59:43.829Z,65.34
2022-08-30T10:02:17.719Z,65.39
2022-08-30T10:05:29.388Z,63.89
2022-08-30T10:08:35.717Z,63.76
2022-08-30T10:11:41.494Z,65.06
2022-08-30T10:14:57.022Z,64.14
2022-08-30T10:18:15.284Z,64.33
2022-08-30T10:21:25.846Z,64.70
2022-08-30T10:24:04.071Z,65.22
2022-08-30T10:27:14.817Z,62.49
2022-08-30T10:30:11.380Z,60.59
2022-08-30T10:33:04.016Z,62.86
2022-08-30T10:35:57.753Z,62.57
2022-08-30T10:38:35.899Z,64.52
2022-08-30T10:41:44.806Z,60.76
2022-08-30T10:44:32.105Z,60.81
2022-08-30T10:47:40.504Z,61.90
2022-08-30T10:50:22.010Z,60.39
2022-08-30T10:53:23.750Z,62.48
2022-08-30T10:55:55.279Z,59.73
2022-08-30T10:58:23.608Z,59.96
2022-08-30T11:01:12.462Z,58.20
2022-08-30T11:04:14.219Z,59.57
2022-08-30T11:07:39.564Z,57.60
2022-08-30T11:10:37.127Z,59.08
2022-08-30T11:13:13.548Z,58.54
2022-08-30T11:16:01.638Z,59.00
2022-08-30T11:18:33.922Z,58.85
2022-08-30T11:21:40.612Z,58.69
2022-08-30T11:24:25.412Z,57.90
2022-08-30T11:27:01.231Z,56.71
2022-08-30T11:29:44.734Z,57.84
2022-08-30T11:32:13.578Z,57.93
2022-08-30T11:34:45.749Z,58.66
2022-08-30T11:37:37.075Z,56.98
2022-08-30T11:40:26.299Z,56.93
2022-08-30T11:43:36.582Z,58.88
2022-08-30T11:46:28.043Z,56.89
2022-08-30T11:49:19.378Z,57.44
2022-08-30T11:52:46.881Z,59.24
2022-08-30T11:55:59.522Z,56.68
2022-08-30T11:59:39.084Z,60.34
2022-08-30T12:02:45.668Z,56.65
2022-08-30T12:05:38.733Z,56.95
2022-08-30T12:08:34.539Z,58.23
2022-08-30T12:11:14.461Z,57.48
2022-08-30T12:14:09.286Z,55.52
2022-08-30T12:17:18.185Z,57.06
2022-08-30T12:19:57.795Z,57.72
2022-08-30T12:22:30.596Z,58.52
2022-08-30T12:24:58.982Z,57.83
2022-08-30T12:27:33.630Z,55.63
2022-08-30T12:30:28.169Z,57.27
2022-08-30T12:33:39.513Z,56.40
2022-08-30T12:36:49.329Z,55.59
2022-08-30T12:39:39.323Z,57.02
2022-08-30T12:43:04.853Z,55.12
2022-08-30T12:45:53.560Z,58.13
2022-08-30T12:48:44.136Z,56.32
2022-08-30T12:51:41.616Z,58.83
2022-08-30T12:54:29.320Z,57.33
2022-08-30T12:57:19.240Z,57.51
2022-08-30T13:00:35.475Z,58.68
2022-08-30T13:03:32.720Z,57.52
2022-08-30T13:06:48.481Z,58.29
2022-08-30T13:09:43.026Z,58.64
2022-08-30T13:12:31.817Z,60.28
2022-08-30T13:15:29.585Z,55.99
2022-08-30T13:18:30.189Z,57.33
2022-08-30T13:21:22.723Z,57.78
2022-08-30T13:24:05.453Z,56.31
2022-08-30T13:26:37.725Z,55.74
2022-08-30T13:29:20.245Z,56.69
2022-08-30T13:31:49.487Z,55.54
2022-08-30T13:34:47.086Z,56.38
2022-08-30T13:37:51.688Z,54.97
2022-08-30T13:40:38.691Z,54.25
2022-08-30T13:43:28.598Z,54.80
2022-08-30T13:45:58.924Z,54.56
2022-08-30T13:48:27.166Z,54.34
2022-08-30T13:50:57.087Z,55.91
2022-08-30T13:56:14.584Z,56.65
2022-08-30T13:58:43.120Z,55.14
2022-08-30T14:01:14.877Z,54.83
2022-08-30T14:04:19.215Z,53.76
2022-08-30T14:07:13.950Z,55.17
2022-08-30T14:09:45.558Z,53.03
2022-08-30T14:12:14.683Z,53.71
2022-08-30T14:14:43.996Z,55.08
2022-08-30T14:17:12.676Z,54.94
2022-08-30T14:19:40.992Z,54.88
2022-08-30T14:22:09.600Z,54.58
2022-08-30T14:24:39.215Z,54.49
2022-08-30T14:27:07.374Z,54.01
2022-08-30T14:29:36.188Z,53.65
2022-08-30T14:32:04.089Z,54.39
2022-08-30T14:34:32.814Z,53.80
2022-08-30T14:37:01.031Z,52.50
2022-08-30T14:39:49.534Z,54.38
2022-08-30T14:42:37.617Z,52.67
2022-08-30T14:45:26.354Z,52.61
2022-08-30T14:48:14.837Z,52.89
2022-08-30T14:51:12.242Z,51.80
2022-08-30T14:54:00.401Z,53.41
2022-08-30T14:56:34.556Z,52.84
2022-08-30T14:59:07.867Z,53.27
2022-08-30T15:01:40.091Z,52.94
2022-08-30T15:04:12.264Z,52.72
2022-08-30T15:06:44.109Z,51.98
2022-08-30T15:09:23.335Z,52.32
2022-08-30T15:11:55.191Z,53.17
2022-08-30T15:14:28.074Z,53.09
2022-08-30T15:16:59.137Z,52.67
2022-08-30T15:19:27.699Z,52.64
2022-08-30T15:22:04.533Z,52.20
2022-08-30T15:24:33.542Z,54.27
2022-08-30T15:27:02.583Z,53.89
2022-08-30T15:29:31.601Z,53.60
2022-08-30T15:32:01.641Z,52.23
2022-08-30T15:34:31.321Z,53.71
2022-08-30T15:37:00.095Z,53.96
2022-08-30T15:39:29.185Z,52.53
2022-08-30T15:42:01.046Z,52.65
2022-08-30T15:44:32.516Z,52.91
2022-08-30T15:47:06.220Z,53.50
2022-08-30T15:49:34.492Z,53.96
2022-08-30T15:52:04.959Z,52.33
2022-08-30T15:54:34.837Z,51.22
2022-08-30T15:57:05.783Z,52.06
2022-08-30T15:59:34.445Z,51.69
2022-08-30T16:02:02.771Z,52.92
2022-08-30T16:04:31.727Z,54.04
2022-08-30T16:06:59.554Z,52.48
2022-08-30T16:09:32.391Z,54.68
2022-08-30T16:12:04.624Z,54.97
2022-08-30T16:14:33.738Z,55.63
2022-08-30T16:17:02.901Z,53.85
2022-08-30T16:19:32.676Z,54.26
2022-08-30T16:22:01.054Z,56.50
2022-08-30T16:24:29.112Z,55.03
2022-08-30T16:26:57.081Z,52.75
2022-08-30T16:29:25.772Z,54.18
2022-08-30T16:31:55.543Z,53.28
2022-08-30T16:34:45.852Z,52.83
2022-08-30T16:37:34.069Z,54.21
2022-08-30T16:40:02.876Z,54.23
2022-08-30T16:42:30.729Z,55.91
2022-08-30T16:44:59.009Z,56.04
2022-08-30T16:47:27.079Z,56.78
2022-08-30T16:49:54.989Z,55.84
2022-08-30T16:52:23.256Z,55.59
2022-08-30T16:54:52.112Z,56.78
2022-08-30T16:57:20.403Z,56.71
2022-08-30T16:59:50.830Z,57.27
2022-08-30T17:02:20.557Z,56.67
2022-08-30T17:04:52.805Z,59.71
2022-08-30T17:07:22.351Z,58.76
2022-08-30T17:09:50.867Z,57.20
2022-08-30T17:12:19.328Z,57.96
2022-08-30T17:14:47.576Z,57.44
2022-08-30T17:17:16.248Z,57.69
2022-08-30T17:19:47.401Z,57.72
2022-08-30T17:22:15.798Z,58.22
2022-08-30T17:24:43.733Z,57.76
2022-08-30T17:27:11.643Z,58.55
2022-08-30T17:29:40.074Z,56.82
2022-08-30T17:32:08.348Z,56.95
2022-08-30T17:34:37.058Z,56.97
2022-08-30T17:37:05.139Z,57.37
2022-08-30T17:39:33.386Z,57.13
2022-08-30T17:42:01.601Z,57.69
2022-08-30T17:44:34.101Z,58.12
2022-08-30T17:47:02.147Z,58.36
2022-08-30T17:49:33.268Z,59.00
2022-08-30T17:52:05.394Z,59.28
2022-08-30T17:54:35.398Z,60.32
2022-08-30T17:57:11.396Z,60.72
2022-08-30T17:59:40.384Z,60.68
2022-08-30T18:02:11.145Z,60.74
2022-08-30T18:04:42.028Z,60.86
2022-08-30T18:07:12.678Z,60.82
2022-08-30T18:09:42.847Z,60.23
2022-08-30T18:12:12.557Z,60.68
2022-08-30T18:14:42.509Z,60.44
2022-08-30T18:17:10.869Z,59.50
2022-08-30T18:19:46.185Z,59.59
2022-08-30T18:22:30.745Z,59.43
2022-08-30T18:25:02.422Z,60.32
2022-08-30T18:27:30.637Z,59.73
2022-08-30T18:29:58.945Z,59.26
2022-08-30T18:32:32.784Z,59.31
2022-08-30T18:35:05.788Z,58.65
2022-08-30T18:37:34.020Z,59.47
2022-08-30T18:40:02.600Z,59.55
2022-08-30T18:42:34.033Z,59.99
2022-08-30T18:45:14.546Z,59.43
2022-08-30T18:47:43.696Z,59.27
2022-08-30T18:50:15.263Z,59.58
2022-08-30T18:52:45.132Z,60.53
2022-08-30T18:55:13.579Z,60.43
2022-08-30T18:57:41.881Z,61.14
2022-08-30T19:00:11.915Z,61.51
2022-08-30T19:02:43.650Z,62.79
2022-08-30T19:05:12.260Z,63.76
2022-08-30T19:07:40.673Z,63.30
2022-08-30T19:10:12.238Z,64.14
2022-08-30T19:12:41.066Z,65.41
2022-08-30T19:15:11.632Z,64.29
2022-08-30T19:17:42.953Z,64.73
2022-08-30T19:20:15.568Z,65.51
2022-08-30T19:23:08.652Z,64.46
2022-08-30T19:25:32.068Z,65.22
2022-08-30T19:28:00.278Z,66.34
2022-08-30T19:30:30.259Z,66.65
2022-08-30T19:32:59.304Z,66.52
2022-08-30T19:35:30.136Z,66.58
2022-08-30T19:37:58.889Z,66.39
2022-08-30T19:40:27.380Z,66.95
2022-08-30T19:42:55.815Z,66.50
2022-08-30T19:45:24.432Z,65.76
2022-08-30T19:47:53.391Z,67.43
2022-08-30T19:50:22.721Z,66.93
2022-08-30T19:52:54.775Z,67.30
2022-08-30T19:55:29.992Z,67.55
2022-08-30T19:57:59.834Z,66.69
2022-08-30T20:00:31.345Z,66.86
2022-08-30T20:03:01.512Z,67.93
2022-08-30T20:05:31.974Z,66.38
2022-08-30T20:08:00.824Z,67.24
2022-08-30T20:10:29.177Z,66.54
2022-08-30T20:12:57.468Z,66.81
2022-08-30T20:15:26.441Z,67.96
2022-08-30T20:18:04.991Z,67.38
2022-08-30T20:20:36.706Z,67.10
2022-08-30T20:23:06.265Z,67.43
2022-08-30T20:25:36.137Z,67.28
2022-08-30T20:28:04.786Z,66.94
2022-08-30T20:30:33.437Z,67.23
2022-08-30T20:33:06.911Z,67.36
2022-08-30T20:35:38.428Z,67.37
2022-08-30T20:38:07.003Z,67.22
2022-08-30T20:40:38.834Z,68.41
2022-08-30T20:43:07.635Z,68.63
2022-08-30T20:45:35.807Z,68.00
2022-08-30T20:48:05.271Z,67.98
2022-08-30T20:50:33.493Z,69.10
2022-08-30T20:53:01.743Z,68.20
2022-08-30T20:55:30.028Z,68.32
2022-08-30T20:57:58.398Z,68.94
2022-08-30T21:00:27.478Z,68.66
2022-08-30T21:02:55.842Z,67.66
2022-08-30T21:05:24.212Z,68.07
2022-08-30T21:07:53.008Z,68.32
2022-08-30T21:10:23.466Z,69.01
2022-08-30T21:12:52.101Z,68.57
2022-08-30T21:15:41.802Z,68.74
2022-08-30T21:18:10.174Z,69.51
2022-08-30T21:20:38.531Z,69.13
2022-08-30T21:23:06.397Z,70.12
2022-08-30T21:25:37.490Z,69.37
2022-08-30T21:28:05.920Z,69.06
2022-08-30T21:30:35.152Z,70.43
2022-08-30T21:33:05.707Z,69.69
2022-08-30T21:35:53.362Z,70.32
2022-08-30T21:38:21.807Z,70.35
2022-08-30T21:40:50.045Z,70.35
2022-08-30T21:43:18.212Z,70.32
2022-08-30T21:45:46.851Z,70.88
2022-08-30T21:48:15.664Z,70.15
2022-08-30T21:50:46.189Z,70.28
2022-08-30T21:53:17.050Z,70.19
2022-08-30T21:55:45.759Z,70.34
2022-08-30T21:58:16.582Z,70.85
2022-08-30T22:00:44.740Z,71.25
2022-08-30T22:03:13.136Z,71.48
2022-08-30T22:05:41.149Z,72.01
2022-08-30T22:08:09.865Z,72.08
2022-08-30T22:10:38.081Z,71.95
2022-08-30T22:13:10.097Z,71.82
2022-08-30T22:15:39.093Z,71.91
2022-08-30T22:18:07.285Z,72.26
2022-08-30T22:20:35.754Z,72.15
2022-08-30T22:23:04.549Z,72.40
2022-08-30T22:25:32.797Z,73.25
2022-08-30T22:28:00.952Z,72.80
2022-08-30T22:30:32.606Z,72.34
2022-08-30T22:33:00.830Z,73.09
2022-08-30T22:35:29.160Z,72.71
2022-08-30T22:37:57.424Z,72.32
2022-08-30T22:40:25.781Z,72.90
2022-08-30T22:42:54.045Z,72.63
2022-08-30T22:45:22.385Z,72.17
2022-08-30T22:47:50.561Z,72.54
2022-08-30T22:50:18.868Z,72.32
2022-08-30T22:52:46.725Z,72.54
2022-08-30T22:55:15.500Z,72.35
2022-08-30T22:57:43.724Z,72.20
2022-08-30T23:00:15.819Z,72.17
2022-08-30T23:02:45.317Z,71.79
2022-08-30T23:05:15.865Z,71.40
2022-08-30T23:07:44.344Z,71.49
2022-08-30T23:10:13.572Z,71.35
2022-08-30T23:12:41.713Z,71.84
2022-08-30T23:15:13.817Z,71.64
2022-08-30T23:17:42.153Z,72.21
2022-08-30T23:20:10.764Z,73.49
2022-08-30T23:22:39.082Z,72.22
2022-08-30T23:25:26.298Z,71.95
2022-08-30T23:28:19.066Z,72.54
2022-08-30T23:31:07.919Z,72.85
2022-08-30T23:33:54.940Z,72.63
2022-08-30T23:36:41.975Z,71.79
2022-08-30T23:39:28.571Z,70.37
2022-08-30T23:42:14.796Z,70.33
2022-08-30T23:45:01.155Z,71.46
2022-08-30T23:47:47.621Z,72.45
2022-08-30T23:50:34.163Z,72.59
2022-08-30T23:53:20.802Z,72.27
2022-08-30T23:56:07.787Z,75.12
2022-08-30T23:58:55.648Z,75.83
